CheckWX is a tool to help pilots better visualize weather data.  It is not intended as a substitute for an official pre-flight weather briefing.

12:24:02 UTC

GOGG METAR
Ziguinchor Airport
Ziguinchor, Senegal
Current

24 mins ago

GOGG 251200Z 26008KT CAVOK 28/17 Q1013
Observed
Mar-25 @ 12:00 UTC
Wind
  • 260° at 8 KTS
Visibility
10,000+ meters
Flight Rules
VFR
Cloud Levels
  • Clear skies
Temperature
28°C / 82°F
Dewpoint
17°C / 63°F
Humidity
51%
Altimeter
29.91" Hg
Pressure
1012.92 hPa
Previous

3 hours ago

GOGG 250900Z 22006KT CAVOK 21/18 Q1012
Observed
Mar-25 @ 09:00 UTC
Wind
  • 220° at 6 KTS
Visibility
10,000+ meters
Flight Rules
VFR
Cloud Levels
  • Clear skies
Temperature
21°C / 70°F
Dewpoint
18°C / 64°F
Humidity
83%
Altimeter
29.88" Hg
Pressure
1011.92 hPa
Previous

5 hours ago

GOGG 250700Z VRB02KT CAVOK 19/17 Q1011
Observed
Mar-25 @ 07:00 UTC
Wind
  • Variable at 2 KTS
Visibility
10,000+ meters
Flight Rules
VFR
Cloud Levels
  • Clear skies
Temperature
19°C / 66°F
Dewpoint
17°C / 63°F
Humidity
88%
Altimeter
29.85" Hg
Pressure
1010.92 hPa